St-Hubert, Belgium
Current Conditions -  °F | °C
As of 5:55 AM on Sunday 21 Dec 2014 (Local Time) from EBFS Reporting Station
Scattered Clouds Scattered Clouds  
Wind Chill: 34°   Ceiling: Unl
Heat Index: 37°   Visibility: 6mi
Dew Point: 36°   Wind: 5mph
Humidity: 93%   Direction: 240°WSW
Pressure: 30.45"   Gusts: NA
Location:  50.03°N, 5.4°E
Report Text: EBFS 210455Z AUTO 24004KT 9999 SCT018/// 03/02 Q1031 WHT
Loading
Personal Weather Stations






























Interactive Weather Map New forecast layout! Learn more

10-Day Weather Forecast

Advertisements
Track Severe Weather on mobile